Relevés horaires Eggishorn (Suisse)


Relevés horaires à Eggishorn - Mardi 11 Août 2015
Heure UTC1 Température [°C] Vent [km/h] Hum. [%] Pres.4 [hPa] Visi. [Km] Nébu. [octa] Préc.5 [mm] Cond.
2m. Res. Ros. Dir.2 Vit. Moy. Raf.3
23:00 8.5 8.5 6.6 N 1.9 3.7 9.3 88 700(0.6/3h) -- -- -- --
22:00 8.1 7.4 7.2 SE 5.6 5.6 11.1 94 700(1.1/3h) -- -- -- --
21:00 8.4 7.7 7.1 ESE 5.6 11.1 13.0 92 700(1.2/3h) -- -- -- --
20:00 8.7 7.2 6.8 SE 9.3 11.1 13.0 88 700(1.2/3h) -- -- -- --
19:00 9.5 9 5.1 S 5.6 5.6 9.3 74 700(0.7/3h) -- -- -- --
18:00 11.0 11.0 4.9 OSO 3.7 11.1 24.1 66 700(0.5/3h) -- -- -- --
17:00 10.4 10.4 2.7 ESE 3.7 3.7 11.1 59 700(0.2/3h) -- -- -- --
16:00 11.7 11.7 4.8 OSO 3.7 3.7 14.8 63 700(0.2/3h) -- -- -- --
15:00 10.7 10.4 4.4 ENE 5.6 11.1 24.1 65 700(0.2/3h) -- -- -- --
14:00 11.9 11.8 5.7 SSO 5.6 5.6 20.4 66 700(0.2/3h) -- -- -- --
13:00 13.0 13 5.5 S 5.6 5.6 16.7 60 700(0.3/3h) -- -- -- --
12:00 12.2 12.1 6.6 S 5.6 7.4 20.4 69 700(0.5/3h) -- -- -- --
11:00 12.1 12 6.9 SSO 5.6 7.4 20.4 70 700(0.8/3h) -- -- -- --
10:00 11.2 10.5 7.0 ESE 7.4 7.4 18.5 75 700(0.9/3h) -- -- -- --
09:00 9.6 8.7 7.2 SE 7.4 7.4 18.5 85 700(0.9/3h) -- -- -- --
08:00 9.1 8.6 6.2 E 5.6 7.4 11.1 82 700(0.8/3h) -- -- -- --
07:00 7.3 7.3 5.9 ESE 3.7 3.7 11.1 91 700(0.4/3h) -- -- -- --
06:00 7.0 6.1 3.0 ONO 5.6 13.0 16.7 76 700(0.0/3h) -- -- -- --
05:00 6.5 6.5 2.6 SSO 3.7 5.6 5.6 76 700(-0.4/3h) -- -- -- --
04:00 6.4 6.4 2.9 OSO 3.7 7.4 11.1 78 700(-0.4/3h) -- -- -- --
03:00 6.6 5.2 2.5 SSO 7.4 13.0 16.7 75 700(-0.5/3h) -- -- -- --
02:00 7.0 4.8 3.0 SSO 11.1 13.0 16.7 76 700(-0.3/3h) -- -- -- --
01:00 6.8 5.9 3.2 OSO 5.6 7.4 9.3 78 700(-0.2/3h) -- -- -- --
00:00 6.7 6.7 3.8 O 3.7 9.3 14.8 82 700(-0.2/3h) -- -- -- --

1 Coordinated Universal Time. Actuellement il est 07:00 locale et 05:00 UTC.

2 Le vent souffle depuis la direction indiquée vers la direction oposée.

3 Les rafales max. sont disponible 40 min après l'heure du relevé.

4 Pour les stations d'altitude (plus de 600m) le géopotentiel du niveau le plus proche de la pression obligatoire est indiqué.

5 Les stations disposant d'un diffuseur peuvent indiquer "trace". Cela signifie que des précipitations ont touchés le sol mais que la quantité est inférieure à 0.1 mm.

Copyright

Les données affichées sur cette page sont la propriété exclusive de Météo Suisse.

Récapitulatif de la journée
Température [°C] Vent [km/h] Ensoleillement4 [h] Precipitations totale5 [mm] Pression [Hpa]
Min1 Max.2 Moy.3 Max. Min Max.
5.8 14.2 7.8 24.1 10 h 12 min 0 700.0 700.0

1 Température minimale relevée entre 18:00 UTC la veille et 18:00 UTC le jour donné.

2 Température maximale relevée entre 06:00 UTC le jour donné et 06:00 UTC le lendemain.

3 Vent moyen de la journée basé sur les relevés horaires.

4 Ensoleillement en heures relevé entre 06:00 UTC la veille et 06:00 UTC le jour donné.

5 Précipitations totales tombées entre 06:00 UTC la jour donné et 06:00 UTC le lendemain.

Graphiques horaires